Terminal Aerodrome Forecast
Issued by NWS Twin Cities, MN

Home | Current Version | Previous Version | Text Only | Print | Product List | Glossary Off
Versions: 1 2 3 4 5 6 7 8 9 10 11 12 13 14

329
FTUS43 KMPX 132329
TAFEAU
TAF
KEAU 132329Z 1400/1424 17006KT P6SM FEW120
     FM140600 VRB03KT P6SM VCSH OVC100
     FM141200 VRB03KT P6SM SHRA VCTS SCT020 BKN040CB
      TEMPO 1412/1415 4SM SHRA BKN020
     FM141500 14006KT P6SM VCSH OVC012=

USA.gov is the U.S. government's official web portal to all federal, state and local government web resources and services.